YXTE weather

Tenterfield - Federation Park Heliport
Tenterfield, New South Wales, Australia

Public forecast

Using degrees Celsius for public forecast. Weather courtesy of forecast.io.

Closest aviation weather report (METAR) to Tenterfield - Federation Park Heliport

Closest report is Casino Airport, 56.1 nm (103.8 km) E. Retrieved 2019/10/17 14:00 UTC (43 minutes ago):

YCAS 171400Z AUTO 30004KT //// // ////// 20/16 Q1013

Closest aviation forecast (TAF) to Tenterfield - Federation Park Heliport

Closest forecast is RAAF Base Amberley, 92.1 nm (170.7 km) NNE. Retrieved 2019/10/17 12:00 UTC (3 hours ago):

TAF YAMB 171001Z 1712/1806 VRB05KT 9999 FEW040 FM171400 VRB03KT 9999 MIFG NSC FM172100 VRB05KT CAVOK FM180000 07012KT CAVOK